createdAt,value
2022-12-17T00:02:36.764Z,71.08
2022-12-17T00:05:27.096Z,71.02
2022-12-17T00:08:18.691Z,71.27
2022-12-17T00:11:09.165Z,71.48
2022-12-17T00:14:00.000Z,71.69
2022-12-17T00:16:49.889Z,71.78
2022-12-17T00:19:39.749Z,71.16
2022-12-17T00:22:29.900Z,71.55
2022-12-17T00:25:19.907Z,71.37
2022-12-17T00:28:09.915Z,71.69
2022-12-17T00:31:01.247Z,70.99
2022-12-17T00:33:54.373Z,71.33
2022-12-17T00:36:46.784Z,71.23
2022-12-17T00:39:36.714Z,71.51
2022-12-17T00:42:26.789Z,72.11
2022-12-17T00:45:17.140Z,71.88
2022-12-17T00:48:10.267Z,71.47
2022-12-17T00:51:00.634Z,71.92
2022-12-17T00:53:50.889Z,71.84
2022-12-17T00:56:41.049Z,71.65
2022-12-17T00:59:31.174Z,71.19
2022-12-17T01:02:23.133Z,71.50
2022-12-17T01:05:13.502Z,71.50
2022-12-17T01:08:03.837Z,71.24
2022-12-17T01:10:54.069Z,71.36
2022-12-17T01:13:46.461Z,71.04
2022-12-17T01:16:38.300Z,70.75
2022-12-17T01:19:28.421Z,71.51
2022-12-17T01:22:18.515Z,71.16
2022-12-17T01:25:08.979Z,70.62
2022-12-17T01:27:59.676Z,70.91
2022-12-17T01:30:50.397Z,70.35
2022-12-17T01:33:40.624Z,70.63
2022-12-17T01:36:30.797Z,70.56
2022-12-17T01:39:20.953Z,69.99
2022-12-17T01:42:10.885Z,70.27
2022-12-17T01:45:10.941Z,70.12
2022-12-17T01:48:06.383Z,69.75
2022-12-17T01:51:02.223Z,70.21
2022-12-17T01:54:12.216Z,69.88
2022-12-17T01:57:02.482Z,69.35
2022-12-17T02:00:08.743Z,69.50
2022-12-17T02:03:05.709Z,68.90
2022-12-17T02:06:00.314Z,68.94
2022-12-17T02:08:59.712Z,68.65
2022-12-17T02:12:14.212Z,69.13
2022-12-17T02:15:26.337Z,68.72
2022-12-17T02:18:20.817Z,68.30
2022-12-17T02:21:13.562Z,68.79
2022-12-17T02:24:18.991Z,68.93
2022-12-17T02:27:13.617Z,68.47
2022-12-17T02:30:12.045Z,68.40
2022-12-17T02:33:05.531Z,69.10
2022-12-17T02:36:07.137Z,68.92
2022-12-17T02:38:57.285Z,68.71
2022-12-17T02:42:19.364Z,69.00
2022-12-17T02:45:10.918Z,68.94
2022-12-17T02:48:03.641Z,68.98
2022-12-17T02:50:54.794Z,69.06
2022-12-17T02:53:45.059Z,69.53
2022-12-17T02:56:36.088Z,69.65
2022-12-17T02:59:27.264Z,69.31
2022-12-17T03:02:17.820Z,69.43
2022-12-17T03:05:35.704Z,69.76
2022-12-17T03:08:18.176Z,69.99
2022-12-17T03:11:08.464Z,70.15
2022-12-17T03:13:58.757Z,69.70
2022-12-17T03:16:49.151Z,70.82
2022-12-17T03:19:39.404Z,70.74
2022-12-17T03:22:29.286Z,70.10
2022-12-17T03:25:19.129Z,70.71
2022-12-17T03:28:09.252Z,70.80
2022-12-17T03:30:59.442Z,70.91
2022-12-17T03:33:49.672Z,71.29
2022-12-17T03:36:40.493Z,71.26
2022-12-17T03:39:30.688Z,70.69
2022-12-17T03:42:20.646Z,71.44
2022-12-17T03:45:10.765Z,71.40
2022-12-17T03:48:00.564Z,71.73
2022-12-17T03:50:50.405Z,71.56
2022-12-17T03:53:40.569Z,71.66
2022-12-17T03:56:30.837Z,71.21
2022-12-17T03:59:20.844Z,71.31
2022-12-17T04:02:11.259Z,71.52
2022-12-17T04:05:01.849Z,71.83
2022-12-17T04:07:52.198Z,72.00
2022-12-17T04:10:42.467Z,72.08
2022-12-17T04:13:37.332Z,72.60
2022-12-17T04:16:33.295Z,72.85
2022-12-17T04:19:23.495Z,72.92
2022-12-17T04:22:13.438Z,73.49
2022-12-17T04:25:03.506Z,73.60
2022-12-17T04:27:53.532Z,73.64
2022-12-17T04:30:43.764Z,73.65
2022-12-17T04:33:34.250Z,73.21
2022-12-17T04:36:25.093Z,73.39
2022-12-17T04:39:15.372Z,73.87
2022-12-17T04:42:05.547Z,73.79
2022-12-17T04:44:55.574Z,74.43
2022-12-17T04:47:45.937Z,73.90
2022-12-17T04:50:35.949Z,74.75
2022-12-17T04:53:26.108Z,74.57
2022-12-17T04:56:16.024Z,74.01
2022-12-17T04:59:09.106Z,74.18
2022-12-17T05:01:59.312Z,74.27
2022-12-17T05:04:49.237Z,73.87
2022-12-17T05:07:39.741Z,74.75
2022-12-17T05:10:29.552Z,74.81
2022-12-17T05:13:20.318Z,74.24
2022-12-17T05:16:15.100Z,75.10
2022-12-17T05:19:05.244Z,75.09
2022-12-17T05:22:02.600Z,74.85
2022-12-17T05:24:52.540Z,74.97
2022-12-17T05:27:42.408Z,74.78
2022-12-17T05:30:32.587Z,74.76
2022-12-17T05:33:22.900Z,74.83
2022-12-17T05:36:13.909Z,74.81
2022-12-17T05:39:04.061Z,75.16
2022-12-17T05:41:54.349Z,75.28
2022-12-17T05:44:44.287Z,75.53
2022-12-17T05:47:34.248Z,75.40
2022-12-17T05:50:24.676Z,75.42
2022-12-17T05:53:23.379Z,75.67
2022-12-17T05:56:13.280Z,75.37
2022-12-17T05:59:03.645Z,75.33
2022-12-17T06:01:53.806Z,75.66
2022-12-17T06:04:44.148Z,75.47
2022-12-17T06:07:34.571Z,76.20
2022-12-17T06:10:24.649Z,75.71
2022-12-17T06:13:15.183Z,75.48
2022-12-17T06:16:09.183Z,75.76
2022-12-17T06:18:59.461Z,75.97
2022-12-17T06:21:49.861Z,75.77
2022-12-17T06:24:45.560Z,75.85
2022-12-17T06:27:35.839Z,75.90
2022-12-17T06:30:27.508Z,75.86
2022-12-17T06:33:25.805Z,75.79
2022-12-17T06:36:22.216Z,76.00
2022-12-17T06:39:13.137Z,75.63
2022-12-17T06:42:04.615Z,75.76
2022-12-17T06:44:55.271Z,75.75
2022-12-17T06:47:45.256Z,75.57
2022-12-17T06:50:35.816Z,76.00
2022-12-17T06:53:26.811Z,75.79
2022-12-17T06:56:18.423Z,76.10
2022-12-17T06:59:08.648Z,75.73
2022-12-17T07:01:58.692Z,76.10
2022-12-17T07:04:48.813Z,75.58
2022-12-17T07:07:38.847Z,76.07
2022-12-17T07:10:28.780Z,76.01
2022-12-17T07:13:34.389Z,76.63
2022-12-17T07:16:24.705Z,76.56
2022-12-17T07:19:14.952Z,76.41
2022-12-17T07:22:05.095Z,76.05
2022-12-17T07:24:55.547Z,76.59
2022-12-17T07:27:45.512Z,76.16
2022-12-17T07:30:35.648Z,76.47
2022-12-17T07:33:48.112Z,76.43
2022-12-17T07:36:38.351Z,76.45
2022-12-17T07:39:28.457Z,76.37
2022-12-17T07:42:18.451Z,76.29
2022-12-17T07:45:08.676Z,76.28
2022-12-17T07:47:58.800Z,76.26
2022-12-17T07:50:48.803Z,76.18
2022-12-17T07:53:38.967Z,76.27
2022-12-17T07:56:29.109Z,76.29
2022-12-17T07:59:18.970Z,76.28
2022-12-17T08:02:09.102Z,76.52
2022-12-17T08:05:00.233Z,76.32
2022-12-17T08:07:50.691Z,76.43
2022-12-17T08:10:40.900Z,76.37
2022-12-17T08:13:30.823Z,76.06
2022-12-17T08:16:21.055Z,76.10
2022-12-17T08:19:16.788Z,76.20
2022-12-17T08:22:07.362Z,76.36
2022-12-17T08:24:57.554Z,75.90
2022-12-17T08:27:47.834Z,75.88
2022-12-17T08:30:38.090Z,75.97
2022-12-17T08:33:28.397Z,75.58
2022-12-17T08:36:18.655Z,75.53
2022-12-17T08:39:08.626Z,75.92
2022-12-17T08:42:04.083Z,75.13
2022-12-17T08:44:54.824Z,74.98
2022-12-17T08:47:48.684Z,74.88
2022-12-17T08:50:38.677Z,74.75
2022-12-17T08:53:34.593Z,75.81
2022-12-17T08:56:25.518Z,76.11
2022-12-17T08:59:15.677Z,76.67
2022-12-17T09:02:05.890Z,76.25
2022-12-17T09:04:55.896Z,74.13
2022-12-17T09:07:45.775Z,73.77
2022-12-17T09:10:35.863Z,74.14
2022-12-17T09:13:25.836Z,73.26
2022-12-17T09:16:16.360Z,73.54
2022-12-17T09:19:06.719Z,72.43
2022-12-17T09:21:59.804Z,72.04
2022-12-17T09:24:49.943Z,71.85
2022-12-17T09:27:40.224Z,71.95
2022-12-17T09:30:31.209Z,70.93
2022-12-17T09:33:41.306Z,71.14
2022-12-17T09:36:31.641Z,71.52
2022-12-17T09:39:22.016Z,71.21
2022-12-17T09:42:33.393Z,70.78
2022-12-17T09:45:48.244Z,70.96
2022-12-17T09:49:21.962Z,72.26
2022-12-17T09:52:12.396Z,70.09
2022-12-17T09:55:07.371Z,69.53
2022-12-17T09:57:57.584Z,69.42
2022-12-17T10:00:48.277Z,69.21
2022-12-17T10:03:41.772Z,69.34
2022-12-17T10:06:37.442Z,69.97
2022-12-17T10:09:33.565Z,69.29
2022-12-17T10:12:31.440Z,68.45
2022-12-17T10:15:22.976Z,68.88
2022-12-17T10:18:13.293Z,69.11
2022-12-17T10:21:10.954Z,69.33
2022-12-17T10:24:01.332Z,69.22
2022-12-17T10:26:59.167Z,69.60
2022-12-17T10:29:50.689Z,69.85
2022-12-17T10:32:43.719Z,69.90
2022-12-17T10:35:55.286Z,70.05
2022-12-17T10:38:48.869Z,69.58
2022-12-17T10:41:43.841Z,69.74
2022-12-17T10:44:47.773Z,69.20
2022-12-17T10:47:50.172Z,68.87
2022-12-17T10:50:42.620Z,68.14
2022-12-17T10:53:41.135Z,67.66
2022-12-17T10:56:41.797Z,67.05
2022-12-17T10:59:43.567Z,66.79
2022-12-17T11:02:43.531Z,66.93
2022-12-17T11:05:43.956Z,66.57
2022-12-17T11:08:35.420Z,66.05
2022-12-17T11:11:31.696Z,65.77
2022-12-17T11:14:24.406Z,65.63
2022-12-17T11:17:23.616Z,64.97
2022-12-17T11:20:18.936Z,65.54
2022-12-17T11:23:16.492Z,65.44
2022-12-17T11:26:18.084Z,65.61
2022-12-17T11:29:08.394Z,65.14
2022-12-17T11:32:26.459Z,64.54
2022-12-17T11:35:49.036Z,64.57
2022-12-17T11:38:51.503Z,64.48
2022-12-17T11:42:11.069Z,63.75
2022-12-17T11:45:11.816Z,63.83
2022-12-17T11:48:13.230Z,63.55
2022-12-17T11:51:08.273Z,64.25
2022-12-17T11:54:33.350Z,64.36
2022-12-17T11:57:43.446Z,63.58
2022-12-17T12:00:40.477Z,63.45
2022-12-17T12:03:59.122Z,63.64
2022-12-17T12:07:14.520Z,63.65
2022-12-17T12:10:08.729Z,63.43
2022-12-17T12:13:20.855Z,62.08
2022-12-17T12:16:29.965Z,61.26
2022-12-17T12:19:42.327Z,61.70
2022-12-17T12:23:08.261Z,61.10
2022-12-17T12:26:28.195Z,60.19
2022-12-17T12:29:41.285Z,60.09
2022-12-17T12:32:55.604Z,60.43
2022-12-17T12:35:47.527Z,60.51
2022-12-17T12:38:49.275Z,60.62
2022-12-17T12:41:48.041Z,60.88
2022-12-17T12:44:56.513Z,60.57
2022-12-17T12:47:56.551Z,60.75
2022-12-17T12:51:00.212Z,60.43
2022-12-17T12:53:50.817Z,60.82
2022-12-17T12:56:55.252Z,61.25
2022-12-17T12:59:46.942Z,61.20
2022-12-17T13:02:46.195Z,60.04
2022-12-17T13:05:34.993Z,61.00
2022-12-17T13:08:24.475Z,60.92
2022-12-17T13:10:56.325Z,60.36
2022-12-17T13:13:37.099Z,60.82
2022-12-17T13:16:46.181Z,60.90
2022-12-17T13:19:22.519Z,60.92
2022-12-17T13:21:54.115Z,61.24
2022-12-17T13:24:27.417Z,60.92
2022-12-17T13:26:59.000Z,61.13
2022-12-17T13:29:37.701Z,60.52
2022-12-17T13:32:25.837Z,60.66
2022-12-17T13:35:12.540Z,60.99
2022-12-17T13:37:52.639Z,61.06
2022-12-17T13:40:36.232Z,60.97
2022-12-17T13:43:21.099Z,61.12
2022-12-17T13:45:55.324Z,60.91
2022-12-17T13:48:29.200Z,61.28
2022-12-17T13:51:03.435Z,61.01
2022-12-17T13:53:35.351Z,60.61
2022-12-17T13:56:07.093Z,61.03
2022-12-17T13:58:39.122Z,61.18
2022-12-17T14:01:14.980Z,61.42
2022-12-17T14:04:08.077Z,61.03
2022-12-17T14:06:41.359Z,61.17
2022-12-17T14:09:28.013Z,61.00
2022-12-17T14:12:21.715Z,60.89
2022-12-17T14:14:57.630Z,61.33
2022-12-17T14:17:50.979Z,60.93
2022-12-17T14:20:30.374Z,60.92
2022-12-17T14:23:19.156Z,61.45
2022-12-17T14:25:50.904Z,61.38
2022-12-17T14:28:30.206Z,61.14
2022-12-17T14:34:08.185Z,61.19
2022-12-17T14:36:42.344Z,61.56
2022-12-17T14:39:28.814Z,61.23
2022-12-17T14:42:29.275Z,61.35
2022-12-17T14:45:22.913Z,61.44
2022-12-17T14:48:00.019Z,61.32
2022-12-17T14:50:34.658Z,61.48
2022-12-17T14:53:27.477Z,61.23
2022-12-17T14:55:59.701Z,61.36
2022-12-17T14:58:31.635Z,61.11
2022-12-17T15:01:13.349Z,61.06
2022-12-17T15:03:49.580Z,61.56
2022-12-17T15:06:27.164Z,61.78
2022-12-17T15:08:59.060Z,61.82
2022-12-17T15:11:30.652Z,62.06
2022-12-17T15:14:02.196Z,62.29
2022-12-17T15:16:33.857Z,62.75
2022-12-17T15:19:05.452Z,62.29
2022-12-17T15:21:37.155Z,62.51
2022-12-17T15:24:13.807Z,62.94
2022-12-17T15:26:46.115Z,62.95
2022-12-17T15:29:17.663Z,62.85
2022-12-17T15:31:49.276Z,63.08
2022-12-17T15:34:21.004Z,63.35
2022-12-17T15:36:52.557Z,63.48
2022-12-17T15:39:24.128Z,63.56
2022-12-17T15:42:14.073Z,63.95
2022-12-17T15:44:45.734Z,64.03
2022-12-17T15:47:17.358Z,64.17
2022-12-17T15:49:48.936Z,64.29
2022-12-17T15:52:20.584Z,64.53
2022-12-17T15:54:52.194Z,64.81
2022-12-17T15:57:23.862Z,64.91
2022-12-17T15:59:57.971Z,65.10
2022-12-17T16:02:29.834Z,65.12
2022-12-17T16:05:01.459Z,65.57
2022-12-17T16:07:33.295Z,65.55
2022-12-17T16:10:06.390Z,65.97
2022-12-17T16:12:48.415Z,65.84
2022-12-17T16:15:26.141Z,65.65
2022-12-17T16:17:58.571Z,65.73
2022-12-17T16:20:34.147Z,65.81
2022-12-17T16:23:09.265Z,66.04
2022-12-17T16:25:41.353Z,65.73
2022-12-17T16:28:13.642Z,66.13
2022-12-17T16:30:45.315Z,66.10
2022-12-17T16:33:17.017Z,65.94
2022-12-17T16:35:55.091Z,65.85
2022-12-17T16:38:26.907Z,66.12
2022-12-17T16:41:01.472Z,65.81
2022-12-17T16:43:34.214Z,65.54
2022-12-17T16:46:11.970Z,65.30
2022-12-17T16:48:43.857Z,65.23
2022-12-17T16:51:23.957Z,65.09
2022-12-17T16:53:59.891Z,65.67
2022-12-17T16:56:37.999Z,65.65
2022-12-17T16:59:13.170Z,65.74
2022-12-17T17:01:47.742Z,65.56
2022-12-17T17:04:21.909Z,66.15
2022-12-17T17:06:55.914Z,66.41
2022-12-17T17:09:27.756Z,66.18
2022-12-17T17:11:59.339Z,66.16
2022-12-17T17:14:30.925Z,65.69
2022-12-17T17:17:02.657Z,65.89
2022-12-17T17:19:34.234Z,66.02
2022-12-17T17:22:05.812Z,66.16
2022-12-17T17:24:37.499Z,66.17
2022-12-17T17:27:09.069Z,65.69
2022-12-17T17:29:40.690Z,66.00
2022-12-17T17:32:13.095Z,65.96
2022-12-17T17:34:45.236Z,66.06
2022-12-17T17:37:17.314Z,65.94
2022-12-17T17:39:48.936Z,66.16
2022-12-17T17:42:20.516Z,66.46
2022-12-17T17:44:52.125Z,66.27
2022-12-17T17:47:23.800Z,65.78
2022-12-17T17:49:55.397Z,65.85
2022-12-17T17:52:27.024Z,66.04
2022-12-17T17:54:58.678Z,66.41
2022-12-17T17:57:30.281Z,66.46
2022-12-17T18:00:02.760Z,65.96
2022-12-17T18:02:37.220Z,66.11
2022-12-17T18:05:09.311Z,66.76
2022-12-17T18:07:40.908Z,66.43
2022-12-17T18:10:12.533Z,67.07
2022-12-17T18:13:02.504Z,66.57
2022-12-17T18:15:34.145Z,66.37
2022-12-17T18:18:11.036Z,66.50
2022-12-17T18:20:45.821Z,66.64
2022-12-17T18:23:17.426Z,66.86
2022-12-17T18:25:49.160Z,66.55
2022-12-17T18:28:20.724Z,66.17
2022-12-17T18:30:52.311Z,66.08
2022-12-17T18:33:25.434Z,65.58
2022-12-17T18:35:59.880Z,65.68
2022-12-17T18:38:31.451Z,65.95
2022-12-17T18:41:37.073Z,65.51
2022-12-17T18:44:08.892Z,65.25
2022-12-17T18:46:40.624Z,65.53
2022-12-17T18:49:16.167Z,65.58
2022-12-17T18:51:49.889Z,65.83
2022-12-17T18:54:27.038Z,66.05
2022-12-17T18:57:01.391Z,66.26
2022-12-17T18:59:40.775Z,65.59
2022-12-17T19:02:13.485Z,65.61
2022-12-17T19:04:45.176Z,65.21
2022-12-17T19:07:16.808Z,65.41
2022-12-17T19:09:48.445Z,66.04
2022-12-17T19:12:20.025Z,66.32
2022-12-17T19:14:52.435Z,66.48
2022-12-17T19:17:24.119Z,66.47
2022-12-17T19:19:55.680Z,67.06
2022-12-17T19:22:27.310Z,67.03
2022-12-17T19:24:58.893Z,67.48
2022-12-17T19:27:30.544Z,67.74
2022-12-17T19:30:04.138Z,67.56
2022-12-17T19:32:36.035Z,67.63
2022-12-17T19:35:10.822Z,68.16
2022-12-17T19:37:45.397Z,67.45
2022-12-17T19:40:20.029Z,68.12
2022-12-17T19:42:55.119Z,68.93
2022-12-17T19:45:26.811Z,69.38
2022-12-17T19:47:58.482Z,69.45
2022-12-17T19:50:30.016Z,69.48
2022-12-17T19:53:01.667Z,69.54
2022-12-17T19:55:33.944Z,69.54
2022-12-17T19:58:05.589Z,69.63
2022-12-17T20:00:37.311Z,69.52
2022-12-17T20:03:10.191Z,69.99
2022-12-17T20:05:45.954Z,70.15
2022-12-17T20:08:22.344Z,69.46
2022-12-17T20:10:54.185Z,70.27
2022-12-17T20:13:25.797Z,70.01
2022-12-17T20:16:01.927Z,70.44
2022-12-17T20:18:33.531Z,70.71
2022-12-17T20:21:06.682Z,70.39
2022-12-17T20:23:38.348Z,70.60
2022-12-17T20:26:11.489Z,71.03
2022-12-17T20:28:43.578Z,71.11
2022-12-17T20:31:15.302Z,71.38
2022-12-17T20:33:46.995Z,70.91
2022-12-17T20:36:25.582Z,70.84
2022-12-17T20:38:57.483Z,70.92
2022-12-17T20:41:30.981Z,70.77
2022-12-17T20:44:05.040Z,71.11
2022-12-17T20:46:37.158Z,71.62
2022-12-17T20:49:10.987Z,71.78
2022-12-17T20:51:43.100Z,71.88
2022-12-17T20:54:14.822Z,71.88
2022-12-17T20:56:46.632Z,71.88
2022-12-17T20:59:19.524Z,71.92
2022-12-17T21:01:56.046Z,71.57
2022-12-17T21:04:28.003Z,71.66
2022-12-17T21:06:59.609Z,71.86
2022-12-17T21:09:31.213Z,71.70
2022-12-17T21:12:02.897Z,71.72
2022-12-17T21:14:35.875Z,71.89
2022-12-17T21:17:07.783Z,72.22
2022-12-17T21:19:39.352Z,72.42
2022-12-17T21:22:10.948Z,72.43
2022-12-17T21:24:42.953Z,72.61
2022-12-17T21:27:17.258Z,72.31
2022-12-17T21:29:48.883Z,72.02
2022-12-17T21:32:20.499Z,71.89
2022-12-17T21:34:52.097Z,72.43
2022-12-17T21:37:23.707Z,72.60
2022-12-17T21:39:59.645Z,72.81
2022-12-17T21:42:49.980Z,72.83
2022-12-17T21:45:21.553Z,72.76
2022-12-17T21:47:53.338Z,72.58
2022-12-17T21:50:24.921Z,72.73
2022-12-17T21:52:56.718Z,72.84
2022-12-17T21:55:28.433Z,72.78
2022-12-17T21:58:00.033Z,72.67
2022-12-17T22:00:32.129Z,72.60
2022-12-17T22:03:03.867Z,73.00
2022-12-17T22:05:37.325Z,72.86
2022-12-17T22:08:09.381Z,72.87
2022-12-17T22:10:48.632Z,72.94
2022-12-17T22:13:42.533Z,72.63
2022-12-17T22:16:14.552Z,72.56
2022-12-17T22:18:46.118Z,72.74
2022-12-17T22:21:18.347Z,72.51
2022-12-17T22:23:50.421Z,72.60
2022-12-17T22:26:22.317Z,72.56
2022-12-17T22:28:53.924Z,72.60
2022-12-17T22:31:44.301Z,72.43
2022-12-17T22:35:36.448Z,72.43
2022-12-17T22:39:57.368Z,72.50
2022-12-17T22:44:35.059Z,72.61
2022-12-17T22:44:35.843Z,72.42
2022-12-17T22:46:03.474Z,72.58
2022-12-17T22:48:35.767Z,72.59
2022-12-17T22:51:12.081Z,72.23
2022-12-17T22:53:46.825Z,72.10
2022-12-17T22:56:33.749Z,72.01
2022-12-17T22:59:18.726Z,72.10
2022-12-17T23:01:50.413Z,72.22
2022-12-17T23:04:22.267Z,72.30
2022-12-17T23:06:53.932Z,72.52
2022-12-17T23:09:28.416Z,72.35
2022-12-17T23:12:20.061Z,72.21
2022-12-17T23:14:54.792Z,72.19
2022-12-17T23:17:28.475Z,71.90
2022-12-17T23:20:00.039Z,71.96
2022-12-17T23:22:31.611Z,72.06
2022-12-17T23:25:03.860Z,71.78
2022-12-17T23:27:35.532Z,72.10
2022-12-17T23:30:08.162Z,71.79
2022-12-17T23:32:40.126Z,72.13
2022-12-17T23:35:12.993Z,71.88
2022-12-17T23:37:44.723Z,72.01
2022-12-17T23:40:16.332Z,71.62
2022-12-17T23:42:47.980Z,71.62
2022-12-17T23:45:19.542Z,71.75
2022-12-17T23:47:51.138Z,71.67
2022-12-17T23:50:22.732Z,71.63
2022-12-17T23:52:54.321Z,71.44
2022-12-17T23:55:25.903Z,71.58
2022-12-17T23:57:58.765Z,71.63
